Terminal Aerodrome Forecast
Issued by NWS

Home | Current Version | Previous Version | Text Only | Print | Product List | Glossary On
Versions: 1 2 3 4 5 6 7 8 9 10 11 12 13 14 15 16
000
FTUS43 KGRB 232300
TAFATW
TAF
KATW 232320Z 2400/2424 09007KT P6SM SCT080 OVC150
     FM240500 10005KT P6SM SCT050 OVC090
      TEMPO 2409/2413 5SM -RA OVC040
     FM241300 11012G21KT 4SM -RA BR BKN030 OVC045 WS020/14035KT
     FM241900 10017G26KT 3SM -RA BR BKN035 OVC040 WS020/15045KT=

USA.gov is the U.S. government's official web portal to all federal, state and local government web resources and services.